Terminal Aerodrome Forecast
Issued by NWS Detroit/Pontiac, MI

Home | Current Version | Previous Version | Text Only | Print | Product List | Glossary On
Versions: 1 2 3 4 5 6 7 8 9 10 11 12 13 14 15 16 17 18 19 20 21 22 23 24 25 26 27 28 29 30 31 32 33 34 35
000
FTUS43 KDTX 211127
TAFDTW
TAF
KDTW 211127Z 2112/2218 32008KT P6SM -SHRA OVC015
     FM211600 34012G20KT P6SM OVC025
     FM212300 36008KT P6SM BKN035
     FM221200 35007KT P6SM SCT035=

USA.gov is the U.S. government's official web portal to all federal, state and local government web resources and services.